CXA8575 ZSAM-ZSZS
Flight info
| Callsign | CXA8575 |
|---|---|
| Flight time | N/A |
| Altitude | 36100 |
| Route | DOVPU W643 FOC W644 ANLUD/K0856S1130 B221 SHZ W58 BK W67 HSN DCT BK |
| Aircraft | B738/M-SDE2E3FGHIRWXY/LB1 |
Departure
| Time | N/A |
|---|---|
| Airport | Xiamen Gaoqi International Airport (ZSAM) |
Arrival
| Time | 2026-04-29 17:01 |
|---|---|
| Airport | Zhoushan Putuoshan International Airport (ZSZS) |
| Time | Latitude | Longitude | Altitude | Speed | Heading |
|---|---|---|---|---|---|
| 2026-04-29 15:48 | 27.10608 | 120.17182 | 36175 ft | 523 kts | 29° |
| 2026-04-29 15:48 | 27.16813 | 120.21593 | 36180 ft | 522 kts | 29° |
| 2026-04-29 15:49 | 27.23038 | 120.25987 | 36185 ft | 522 kts | 29° |
| 2026-04-29 15:49 | 27.28604 | 120.29912 | 36188 ft | 523 kts | 28° |
| 2026-04-29 15:50 | 27.34820 | 120.34301 | 36193 ft | 524 kts | 28° |
| 2026-04-29 15:50 | 27.41028 | 120.38699 | 36191 ft | 524 kts | 29° |
| 2026-04-29 15:51 | 27.47225 | 120.43105 | 36186 ft | 523 kts | 29° |
| 2026-04-29 15:51 | 27.53269 | 120.47413 | 36195 ft | 525 kts | 28° |
| 2026-04-29 15:52 | 27.59478 | 120.51846 | 36198 ft | 527 kts | 29° |
| 2026-04-29 15:52 | 27.63091 | 120.54430 | 36195 ft | 525 kts | 29° |
| 2026-04-29 15:53 | 27.68162 | 120.58043 | 36206 ft | 526 kts | 27° |
| 2026-04-29 15:53 | 27.73850 | 120.61533 | 36208 ft | 520 kts | 17° |
| 2026-04-29 15:54 | 27.80551 | 120.63528 | 36207 ft | 507 kts | 1° |
| 2026-04-29 15:54 | 27.87577 | 120.64418 | 36214 ft | 505 kts | 357° |
| 2026-04-29 15:55 | 27.93971 | 120.64942 | 36214 ft | 506 kts | 356° |
| 2026-04-29 15:55 | 27.99764 | 120.65390 | 36214 ft | 506 kts | 356° |
| 2026-04-29 15:56 | 28.06145 | 120.65923 | 36216 ft | 507 kts | 357° |
| 2026-04-29 15:56 | 28.12998 | 120.66557 | 36220 ft | 508 kts | 357° |
| 2026-04-29 15:57 | 28.18577 | 120.67099 | 36219 ft | 508 kts | 357° |
| 2026-04-29 15:57 | 28.25343 | 120.67767 | 36217 ft | 508 kts | 357° |
| 2026-04-29 15:58 | 28.31092 | 120.68333 | 36212 ft | 511 kts | 357° |
| 2026-04-29 15:58 | 28.35328 | 120.68753 | 36206 ft | 509 kts | 357° |
| 2026-04-29 15:59 | 28.42235 | 120.69438 | 36199 ft | 510 kts | 357° |
| 2026-04-29 15:59 | 28.48641 | 120.70077 | 36204 ft | 507 kts | 357° |
| 2026-04-29 16:00 | 28.54711 | 120.70684 | 36204 ft | 514 kts | 357° |
| 2026-04-29 16:00 | 28.61848 | 120.71404 | 36204 ft | 509 kts | 357° |
| 2026-04-29 16:01 | 28.68901 | 120.72120 | 36207 ft | 511 kts | 357° |
| 2026-04-29 16:01 | 28.76043 | 120.72869 | 36209 ft | 514 kts | 357° |
| 2026-04-29 16:02 | 28.83187 | 120.73659 | 36114 ft | 514 kts | 357° |
| 2026-04-29 16:02 | 28.86642 | 120.74046 | 35829 ft | 514 kts | 357° |
| 2026-04-29 16:02 | 28.90217 | 120.74440 | 35540 ft | 511 kts | 357° |
| 2026-04-29 16:02 | 28.93752 | 120.74818 | 35256 ft | 512 kts | 356° |
| 2026-04-29 16:03 | 28.97292 | 120.75185 | 34974 ft | 510 kts | 356° |
| 2026-04-29 16:03 | 29.00833 | 120.75548 | 34692 ft | 512 kts | 356° |
| 2026-04-29 16:03 | 29.04397 | 120.75908 | 34409 ft | 513 kts | 356° |
| 2026-04-29 16:03 | 29.08006 | 120.76274 | 34121 ft | 513 kts | 356° |
| 2026-04-29 16:04 | 29.11554 | 120.76635 | 33839 ft | 514 kts | 357° |
| 2026-04-29 16:04 | 29.15131 | 120.77001 | 33556 ft | 513 kts | 357° |
| 2026-04-29 16:04 | 29.17812 | 120.77275 | 33345 ft | 515 kts | 356° |
| 2026-04-29 16:05 | 29.22170 | 120.77724 | 33003 ft | 515 kts | 356° |
| 2026-04-29 16:05 | 29.25768 | 120.78094 | 32744 ft | 517 kts | 357° |
| 2026-04-29 16:05 | 29.29364 | 120.78464 | 32489 ft | 518 kts | 356° |
| 2026-04-29 16:05 | 29.32980 | 120.78841 | 32233 ft | 516 kts | 356° |
| 2026-04-29 16:06 | 29.36565 | 120.79214 | 31978 ft | 517 kts | 357° |
| 2026-04-29 16:06 | 29.40144 | 120.79585 | 31727 ft | 519 kts | 357° |
| 2026-04-29 16:06 | 29.43746 | 120.79958 | 31472 ft | 521 kts | 357° |
| 2026-04-29 16:06 | 29.47247 | 120.80321 | 31226 ft | 519 kts | 357° |
| 2026-04-29 16:07 | 29.50851 | 120.80776 | 30966 ft | 523 kts | 1° |
| 2026-04-29 16:07 | 29.54468 | 120.81677 | 30714 ft | 533 kts | 11° |
| 2026-04-29 16:07 | 29.57925 | 120.83347 | 30457 ft | 546 kts | 24° |
| 2026-04-29 16:07 | 29.61075 | 120.85805 | 30214 ft | 554 kts | 37° |
| 2026-04-29 16:08 | 29.63780 | 120.88827 | 29973 ft | 558 kts | 46° |
| 2026-04-29 16:08 | 29.66255 | 120.92275 | 29724 ft | 559 kts | 52° |
| 2026-04-29 16:08 | 29.68481 | 120.95778 | 29471 ft | 558 kts | 54° |
| 2026-04-29 16:08 | 29.70652 | 120.99466 | 29212 ft | 559 kts | 56° |
| 2026-04-29 16:09 | 29.72607 | 121.02933 | 28979 ft | 560 kts | 57° |
| 2026-04-29 16:09 | 29.74674 | 121.06670 | 28744 ft | 559 kts | 57° |
| 2026-04-29 16:09 | 29.76749 | 121.10444 | 28491 ft | 558 kts | 57° |
| 2026-04-29 16:09 | 29.78840 | 121.14236 | 28242 ft | 555 kts | 57° |
| 2026-04-29 16:10 | 29.80920 | 121.17980 | 27979 ft | 555 kts | 56° |
| 2026-04-29 16:10 | 29.82996 | 121.21693 | 27128 ft | 558 kts | 56° |
| 2026-04-29 16:10 | 29.85128 | 121.25501 | 26121 ft | 560 kts | 57° |
| 2026-04-29 16:10 | 29.87040 | 121.29369 | 25476 ft | 553 kts | 62° |
| 2026-04-29 16:11 | 29.88583 | 121.33350 | 24975 ft | 543 kts | 68° |
| 2026-04-29 16:11 | 29.89859 | 121.37389 | 24948 ft | 523 kts | 73° |
| 2026-04-29 16:11 | 29.90564 | 121.41379 | 24933 ft | 503 kts | 85° |
| 2026-04-29 16:11 | 29.91201 | 121.45413 | 24941 ft | 513 kts | 74° |
| 2026-04-29 16:12 | 29.92513 | 121.49202 | 24949 ft | 513 kts | 65° |
| 2026-04-29 16:12 | 29.93422 | 121.51757 | 24935 ft | 500 kts | 72° |
| 2026-04-29 16:12 | 29.94131 | 121.56805 | 24899 ft | 471 kts | 94° |
| 2026-04-29 16:12 | 29.93677 | 121.60438 | 24654 ft | 449 kts | 112° |
| 2026-04-29 16:13 | 29.92421 | 121.63623 | 24408 ft | 423 kts | 131° |
| 2026-04-29 16:13 | 29.90545 | 121.66066 | 24163 ft | 394 kts | 150° |
| 2026-04-29 16:13 | 29.88353 | 121.67806 | 23928 ft | 375 kts | 158° |
| 2026-04-29 16:13 | 29.86138 | 121.69308 | 23697 ft | 365 kts | 159° |
| 2026-04-29 16:14 | 29.83961 | 121.70824 | 23461 ft | 358 kts | 156° |
| 2026-04-29 16:14 | 29.81881 | 121.72326 | 23231 ft | 348 kts | 159° |
| 2026-04-29 16:14 | 29.79762 | 121.73545 | 22997 ft | 330 kts | 169° |
| 2026-04-29 16:14 | 29.77611 | 121.74232 | 22769 ft | 313 kts | 179° |
| 2026-04-29 16:15 | 29.75502 | 121.74541 | 22538 ft | 300 kts | 186° |
| 2026-04-29 16:15 | 29.73440 | 121.74607 | 22304 ft | 289 kts | 191° |
| 2026-04-29 16:15 | 29.71457 | 121.74495 | 22069 ft | 280 kts | 194° |
| 2026-04-29 16:15 | 29.69569 | 121.74213 | 21838 ft | 270 kts | 200° |
| 2026-04-29 16:16 | 29.67784 | 121.73709 | 21609 ft | 261 kts | 206° |
| 2026-04-29 16:16 | 29.66089 | 121.73022 | 21378 ft | 256 kts | 210° |
| 2026-04-29 16:16 | 29.64469 | 121.72179 | 21144 ft | 254 kts | 214° |
| 2026-04-29 16:16 | 29.62927 | 121.71201 | 20914 ft | 252 kts | 218° |
| 2026-04-29 16:17 | 29.61472 | 121.70064 | 20674 ft | 249 kts | 223° |
| 2026-04-29 16:17 | 29.60146 | 121.68805 | 20443 ft | 246 kts | 227° |
| 2026-04-29 16:17 | 29.58941 | 121.67448 | 20215 ft | 244 kts | 231° |
| 2026-04-29 16:17 | 29.57821 | 121.65979 | 19976 ft | 241 kts | 234° |
| 2026-04-29 16:18 | 29.56834 | 121.64448 | 19748 ft | 239 kts | 239° |
| 2026-04-29 16:18 | 29.55979 | 121.62819 | 19514 ft | 238 kts | 244° |
| 2026-04-29 16:18 | 29.55243 | 121.61111 | 19281 ft | 238 kts | 247° |
| 2026-04-29 16:18 | 29.54626 | 121.59365 | 19051 ft | 235 kts | 251° |
| 2026-04-29 16:19 | 29.54146 | 121.57581 | 18821 ft | 234 kts | 256° |
| 2026-04-29 16:19 | 29.53802 | 121.55761 | 18588 ft | 236 kts | 259° |
| 2026-04-29 16:19 | 29.53576 | 121.53891 | 18343 ft | 235 kts | 262° |
| 2026-04-29 16:19 | 29.53481 | 121.52021 | 18110 ft | 234 kts | 266° |
| 2026-04-29 16:20 | 29.53439 | 121.50167 | 17875 ft | 233 kts | 266° |
| 2026-04-29 16:20 | 29.53385 | 121.48296 | 17646 ft | 231 kts | 265° |
| 2026-04-29 16:20 | 29.53320 | 121.46448 | 17430 ft | 232 kts | 266° |
| 2026-04-29 16:20 | 29.53259 | 121.44616 | 17209 ft | 231 kts | 266° |
| 2026-04-29 16:21 | 29.53203 | 121.42775 | 16982 ft | 230 kts | 266° |
| 2026-04-29 16:21 | 29.53145 | 121.40926 | 16751 ft | 230 kts | 265° |
| 2026-04-29 16:21 | 29.53082 | 121.39085 | 16526 ft | 232 kts | 266° |
| 2026-04-29 16:21 | 29.53024 | 121.37243 | 16293 ft | 230 kts | 265° |
| 2026-04-29 16:22 | 29.52968 | 121.35434 | 16076 ft | 228 kts | 265° |
| 2026-04-29 16:22 | 29.52933 | 121.33607 | 15839 ft | 228 kts | 267° |
| 2026-04-29 16:22 | 29.53013 | 121.31794 | 15613 ft | 227 kts | 273° |
| 2026-04-29 16:22 | 29.53260 | 121.30016 | 15394 ft | 229 kts | 277° |
| 2026-04-29 16:23 | 29.53636 | 121.28223 | 15163 ft | 230 kts | 281° |
| 2026-04-29 16:23 | 29.54112 | 121.26450 | 14929 ft | 231 kts | 284° |
| 2026-04-29 16:23 | 29.54706 | 121.24753 | 14701 ft | 232 kts | 290° |
| 2026-04-29 16:23 | 29.55448 | 121.23096 | 14461 ft | 233 kts | 294° |
| 2026-04-29 16:24 | 29.56291 | 121.21500 | 14235 ft | 235 kts | 297° |
| 2026-04-29 16:24 | 29.57259 | 121.19966 | 13997 ft | 236 kts | 302° |
| 2026-04-29 16:24 | 29.58347 | 121.18540 | 13758 ft | 237 kts | 308° |
| 2026-04-29 16:24 | 29.59523 | 121.17213 | 13526 ft | 239 kts | 311° |
| 2026-04-29 16:25 | 29.60860 | 121.15992 | 13300 ft | 258 kts | 322° |
| 2026-04-29 16:25 | 29.62703 | 121.15281 | 13085 ft | 302 kts | 349° |
| 2026-04-29 16:25 | 29.64830 | 121.15675 | 12842 ft | 315 kts | 19° |
| 2026-04-29 16:25 | 29.66540 | 121.17164 | 12607 ft | 321 kts | 50° |
| 2026-04-29 16:26 | 29.67565 | 121.19503 | 12378 ft | 326 kts | 72° |
| 2026-04-29 16:26 | 29.68157 | 121.22011 | 12124 ft | 322 kts | 75° |
| 2026-04-29 16:26 | 29.68829 | 121.24471 | 11886 ft | 320 kts | 69° |
| 2026-04-29 16:26 | 29.69676 | 121.26806 | 11638 ft | 320 kts | 65° |
| 2026-04-29 16:27 | 29.70675 | 121.29102 | 11382 ft | 315 kts | 60° |
| 2026-04-29 16:27 | 29.71701 | 121.31290 | 11124 ft | 315 kts | 60° |
| 2026-04-29 16:27 | 29.72771 | 121.33521 | 10882 ft | 315 kts | 60° |
| 2026-04-29 16:27 | 29.73821 | 121.35716 | 10631 ft | 312 kts | 60° |
| 2026-04-29 16:28 | 29.74857 | 121.37894 | 10389 ft | 311 kts | 60° |
| 2026-04-29 16:28 | 29.75890 | 121.40072 | 10138 ft | 309 kts | 60° |
| 2026-04-29 16:28 | 29.76916 | 121.42242 | 9881 ft | 309 kts | 60° |
| 2026-04-29 16:28 | 29.77935 | 121.44402 | 9637 ft | 306 kts | 60° |
| 2026-04-29 16:29 | 29.78946 | 121.46549 | 9391 ft | 303 kts | 60° |
| 2026-04-29 16:29 | 29.79957 | 121.48686 | 9134 ft | 299 kts | 60° |
| 2026-04-29 16:29 | 29.80940 | 121.50769 | 8894 ft | 296 kts | 59° |
| 2026-04-29 16:29 | 29.81921 | 121.52846 | 8640 ft | 292 kts | 60° |
| 2026-04-29 16:30 | 29.82878 | 121.54886 | 8397 ft | 289 kts | 60° |
| 2026-04-29 16:30 | 29.83829 | 121.56908 | 8148 ft | 284 kts | 59° |
| 2026-04-29 16:30 | 29.84765 | 121.58896 | 7902 ft | 281 kts | 60° |
| 2026-04-29 16:30 | 29.85689 | 121.60859 | 7655 ft | 277 kts | 59° |
| 2026-04-29 16:31 | 29.86604 | 121.62804 | 7409 ft | 273 kts | 59° |
| 2026-04-29 16:31 | 29.87506 | 121.64728 | 7155 ft | 272 kts | 59° |
| 2026-04-29 16:31 | 29.88399 | 121.66615 | 6912 ft | 268 kts | 60° |
| 2026-04-29 16:31 | 29.89286 | 121.68504 | 6659 ft | 264 kts | 59° |
| 2026-04-29 16:32 | 29.90156 | 121.70361 | 6410 ft | 262 kts | 59° |
| 2026-04-29 16:32 | 29.90916 | 121.72274 | 6149 ft | 261 kts | 71° |
| 2026-04-29 16:32 | 29.91204 | 121.74327 | 5911 ft | 262 kts | 85° |
| 2026-04-29 16:32 | 29.91222 | 121.76385 | 5665 ft | 262 kts | 88° |
| 2026-04-29 16:33 | 29.91291 | 121.80524 | 5140 ft | 257 kts | 84° |
| 2026-04-29 16:33 | 29.91379 | 121.82585 | 4895 ft | 256 kts | 85° |
| 2026-04-29 16:33 | 29.91461 | 121.84654 | 4636 ft | 255 kts | 85° |
| 2026-04-29 16:34 | 29.91540 | 121.86664 | 4513 ft | 249 kts | 85° |
| 2026-04-29 16:34 | 29.91623 | 121.88666 | 4520 ft | 253 kts | 84° |
| 2026-04-29 16:34 | 29.91706 | 121.90700 | 4509 ft | 254 kts | 84° |
| 2026-04-29 16:34 | 29.91792 | 121.92762 | 4506 ft | 255 kts | 84° |
| 2026-04-29 16:35 | 29.91877 | 121.94792 | 4518 ft | 258 kts | 84° |
| 2026-04-29 16:35 | 29.91966 | 121.96875 | 4499 ft | 255 kts | 85° |
| 2026-04-29 16:35 | 29.92073 | 121.98891 | 4513 ft | 254 kts | 84° |
| 2026-04-29 16:35 | 29.92149 | 122.00914 | 4518 ft | 250 kts | 85° |
| 2026-04-29 16:36 | 29.92199 | 122.02876 | 4516 ft | 235 kts | 86° |
| 2026-04-29 16:36 | 29.92226 | 122.04604 | 4513 ft | 223 kts | 86° |
| 2026-04-29 16:36 | 29.92263 | 122.06394 | 4487 ft | 221 kts | 84° |
| 2026-04-29 16:36 | 29.92337 | 122.08173 | 4501 ft | 222 kts | 83° |
| 2026-04-29 16:37 | 29.92407 | 122.09955 | 4486 ft | 222 kts | 84° |
| 2026-04-29 16:37 | 29.92459 | 122.11718 | 4480 ft | 221 kts | 84° |
| 2026-04-29 16:37 | 29.92514 | 122.13509 | 4481 ft | 222 kts | 84° |
| 2026-04-29 16:37 | 29.92547 | 122.14694 | 4484 ft | 222 kts | 84° |
| 2026-04-29 16:38 | 29.92635 | 122.17069 | 4486 ft | 224 kts | 84° |
| 2026-04-29 16:38 | 29.92704 | 122.18857 | 4490 ft | 223 kts | 84° |
| 2026-04-29 16:38 | 29.92768 | 122.20543 | 4484 ft | 223 kts | 84° |
| 2026-04-29 16:38 | 29.92828 | 122.22325 | 4483 ft | 223 kts | 85° |
| 2026-04-29 16:39 | 29.92880 | 122.24136 | 4471 ft | 222 kts | 84° |
| 2026-04-29 16:39 | 29.92926 | 122.25911 | 4474 ft | 223 kts | 84° |
| 2026-04-29 16:39 | 29.92988 | 122.27693 | 4469 ft | 222 kts | 85° |
| 2026-04-29 16:39 | 29.93049 | 122.29465 | 4487 ft | 224 kts | 83° |
| 2026-04-29 16:40 | 29.93096 | 122.31262 | 4477 ft | 221 kts | 85° |
| 2026-04-29 16:40 | 29.93143 | 122.33051 | 4486 ft | 223 kts | 84° |
| 2026-04-29 16:40 | 29.93206 | 122.34854 | 4485 ft | 224 kts | 84° |
| 2026-04-29 16:40 | 29.93257 | 122.36608 | 4485 ft | 217 kts | 85° |
| 2026-04-29 16:41 | 29.93319 | 122.38401 | 4484 ft | 224 kts | 84° |
| 2026-04-29 16:41 | 29.93379 | 122.40193 | 4467 ft | 221 kts | 85° |
| 2026-04-29 16:41 | 29.93429 | 122.41967 | 4477 ft | 224 kts | 84° |
| 2026-04-29 16:41 | 29.93436 | 122.43745 | 4479 ft | 222 kts | 92° |
| 2026-04-29 16:42 | 29.92982 | 122.45484 | 4475 ft | 231 kts | 122° |
| 2026-04-29 16:42 | 29.91762 | 122.46663 | 4483 ft | 236 kts | 155° |
| 2026-04-29 16:42 | 29.90118 | 122.47011 | 4489 ft | 239 kts | 179° |
| 2026-04-29 16:42 | 29.88449 | 122.47044 | 4468 ft | 239 kts | 177° |
| 2026-04-29 16:43 | 29.86783 | 122.47197 | 4464 ft | 239 kts | 174° |
| 2026-04-29 16:43 | 29.85127 | 122.47387 | 4479 ft | 237 kts | 173° |
| 2026-04-29 16:43 | 29.83472 | 122.47579 | 4468 ft | 239 kts | 175° |
| 2026-04-29 16:43 | 29.81821 | 122.47738 | 4471 ft | 237 kts | 175° |
| 2026-04-29 16:44 | 29.80151 | 122.47907 | 4467 ft | 238 kts | 174° |
| 2026-04-29 16:44 | 29.78497 | 122.48091 | 4468 ft | 237 kts | 174° |
| 2026-04-29 16:44 | 29.76848 | 122.48268 | 4468 ft | 237 kts | 175° |
| 2026-04-29 16:44 | 29.75198 | 122.48230 | 4474 ft | 240 kts | 192° |
| 2026-04-29 16:45 | 29.73687 | 122.47465 | 4452 ft | 233 kts | 225° |
| 2026-04-29 16:45 | 29.72914 | 122.45964 | 4459 ft | 209 kts | 265° |
| 2026-04-29 16:45 | 29.72989 | 122.44358 | 4465 ft | 198 kts | 282° |
| 2026-04-29 16:45 | 29.73078 | 122.42766 | 4241 ft | 206 kts | 270° |
| 2026-04-29 16:46 | 29.72935 | 122.41118 | 4026 ft | 204 kts | 269° |
| 2026-04-29 16:46 | 29.73043 | 122.39552 | 3924 ft | 192 kts | 299° |
| 2026-04-29 16:46 | 29.73914 | 122.38450 | 3710 ft | 188 kts | 337° |
| 2026-04-29 16:46 | 29.75169 | 122.38125 | 3377 ft | 188 kts | 358° |
| 2026-04-29 16:47 | 29.76495 | 122.38010 | 3075 ft | 189 kts | 356° |
| 2026-04-29 16:47 | 29.77787 | 122.37852 | 2958 ft | 181 kts | 357° |
| 2026-04-29 16:47 | 29.79009 | 122.37728 | 2972 ft | 174 kts | 356° |
| 2026-04-29 16:47 | 29.80254 | 122.37598 | 2876 ft | 178 kts | 356° |
| 2026-04-29 16:48 | 29.81465 | 122.37483 | 2825 ft | 173 kts | 355° |
| 2026-04-29 16:48 | 29.82729 | 122.37322 | 2305 ft | 192 kts | 355° |
| 2026-04-29 16:48 | 29.84110 | 122.37231 | 1572 ft | 212 kts | 4° |
| 2026-04-29 16:48 | 29.85584 | 122.37669 | 801 ft | 226 kts | 17° |
| 2026-04-29 16:49 | 29.87050 | 122.38031 | 1107 ft | 195 kts | 16° |
| 2026-04-29 16:49 | 29.88293 | 122.38403 | 2426 ft | 201 kts | 9° |
| 2026-04-29 16:49 | 29.89909 | 122.38414 | 2470 ft | 268 kts | 353° |
| 2026-04-29 16:49 | 29.91860 | 122.38193 | 2264 ft | 279 kts | 2° |
| 2026-04-29 16:50 | 29.93649 | 122.38821 | 2076 ft | 262 kts | 31° |
| 2026-04-29 16:50 | 29.94791 | 122.40377 | 1888 ft | 254 kts | 64° |
| 2026-04-29 16:50 | 29.94943 | 122.42352 | 1694 ft | 252 kts | 98° |
| 2026-04-29 16:50 | 29.94103 | 122.44110 | 1505 ft | 251 kts | 128° |
| 2026-04-29 16:51 | 29.92800 | 122.45411 | 1315 ft | 244 kts | 140° |
| 2026-04-29 16:51 | 29.91390 | 122.46452 | 1121 ft | 239 kts | 148° |
| 2026-04-29 16:51 | 29.89852 | 122.47087 | 928 ft | 235 kts | 168° |
| 2026-04-29 16:51 | 29.88223 | 122.47204 | 740 ft | 230 kts | 178° |
| 2026-04-29 16:52 | 29.86673 | 122.47261 | 635 ft | 216 kts | 175° |
| 2026-04-29 16:52 | 29.85210 | 122.47376 | 654 ft | 206 kts | 173° |
| 2026-04-29 16:52 | 29.83767 | 122.47495 | 767 ft | 203 kts | 173° |
| 2026-04-29 16:52 | 29.82351 | 122.47635 | 1033 ft | 205 kts | 172° |
| 2026-04-29 16:53 | 29.80927 | 122.47836 | 1288 ft | 207 kts | 170° |
| 2026-04-29 16:53 | 29.79476 | 122.48000 | 1539 ft | 209 kts | 173° |
| 2026-04-29 16:53 | 29.78030 | 122.48165 | 1794 ft | 210 kts | 172° |
| 2026-04-29 16:53 | 29.76583 | 122.48334 | 2040 ft | 208 kts | 174° |
| 2026-04-29 16:54 | 29.75117 | 122.48203 | 2332 ft | 222 kts | 199° |
| 2026-04-29 16:54 | 29.73827 | 122.47173 | 2903 ft | 234 kts | 236° |
| 2026-04-29 16:54 | 29.73182 | 122.45483 | 3542 ft | 231 kts | 263° |
| 2026-04-29 16:54 | 29.73017 | 122.43659 | 3674 ft | 227 kts | 270° |
| 2026-04-29 16:55 | 29.72921 | 122.41895 | 3652 ft | 214 kts | 273° |
| 2026-04-29 16:55 | 29.72925 | 122.41214 | 3650 ft | 205 kts | 278° |
| 2026-04-29 16:55 | 29.73156 | 122.39941 | 3650 ft | 183 kts | 298° |
| 2026-04-29 16:55 | 29.73891 | 122.38886 | 3637 ft | 162 kts | 329° |
| 2026-04-29 16:56 | 29.74554 | 122.38524 | 3651 ft | 156 kts | 343° |
| 2026-04-29 16:56 | 29.75614 | 122.38183 | 3475 ft | 163 kts | 349° |
| 2026-04-29 16:56 | 29.76706 | 122.37978 | 3194 ft | 157 kts | 354° |
| 2026-04-29 16:56 | 29.77778 | 122.37862 | 2934 ft | 150 kts | 356° |
| 2026-04-29 16:57 | 29.78826 | 122.37737 | 2740 ft | 151 kts | 355° |
| 2026-04-29 16:57 | 29.79872 | 122.37616 | 2529 ft | 150 kts | 356° |
| 2026-04-29 16:57 | 29.80926 | 122.37509 | 2326 ft | 151 kts | 357° |
| 2026-04-29 16:57 | 29.81964 | 122.37406 | 2104 ft | 148 kts | 357° |
| 2026-04-29 16:58 | 29.82978 | 122.37300 | 1899 ft | 147 kts | 356° |
| 2026-04-29 16:58 | 29.84011 | 122.37209 | 1722 ft | 151 kts | 359° |
| 2026-04-29 16:58 | 29.85051 | 122.37119 | 1491 ft | 150 kts | 354° |
| 2026-04-29 16:58 | 29.86088 | 122.36953 | 1266 ft | 146 kts | 356° |
| 2026-04-29 16:59 | 29.87092 | 122.36899 | 1102 ft | 149 kts | 358° |
| 2026-04-29 16:59 | 29.88130 | 122.36777 | 881 ft | 146 kts | 354° |
| 2026-04-29 16:59 | 29.89145 | 122.36662 | 690 ft | 147 kts | 358° |
| 2026-04-29 16:59 | 29.90160 | 122.36580 | 454 ft | 146 kts | 356° |
| 2026-04-29 17:00 | 29.91173 | 122.36453 | 311 ft | 146 kts | 356° |
| 2026-04-29 17:00 | 29.92174 | 122.36359 | 108 ft | 145 kts | 355° |
| 2026-04-29 17:00 | 29.93118 | 122.36262 | 14 ft | 128 kts | 356° |
| 2026-04-29 17:00 | 29.93795 | 122.36195 | 13 ft | 63 kts | 354° |
| 2026-04-29 17:01 | 29.94071 | 122.36164 | 13 ft | 27 kts | 354° |
| 2026-04-29 17:01 | 29.94173 | 122.36106 | 13 ft | 12 kts | 279° |
| 2026-04-29 17:01 | 29.94175 | 122.36032 | 13 ft | 7 kts | 265° |
| 2026-04-29 17:01 | 29.94154 | 122.35973 | 13 ft | 8 kts | 214° |
| 2026-04-29 17:02 | 29.94094 | 122.35970 | 13 ft | 9 kts | 174° |
| 2026-04-29 17:02 | 29.94030 | 122.35976 | 13 ft | 9 kts | 173° |
| 2026-04-29 17:02 | 29.93964 | 122.35985 | 13 ft | 9 kts | 176° |
| 2026-04-29 17:02 | 29.93897 | 122.35992 | 13 ft | 9 kts | 175° |
| 2026-04-29 17:03 | 29.93830 | 122.35986 | 13 ft | 9 kts | 208° |
| 2026-04-29 17:03 | 29.93798 | 122.35925 | 13 ft | 8 kts | 213° |
| 2026-04-29 17:03 | 29.93742 | 122.35910 | 13 ft | 8 kts | 230° |
| 2026-04-29 17:03 | 29.93731 | 122.35849 | 13 ft | 6 kts | 265° |